Time;durP1;ratioP1;P1;durP2;ratioP2;P2;SDS_P1;SDS_P2;PMS_P1;PMS_P2;Temp;Humidity;BMP_temperature;BMP_pressure;BME280_temperature;BME280_humidity;BME280_pressure;Samples;Min_cycle;Max_cycle;Signal;HPM_P1;HPM_P2
2021/10/07 00:02:16;;;;;;;24.13;14.93;;;;;;;7.39;100.00;101771.19;5062647;28;20068;-84
2021/10/07 00:04:42;;;;;;;30.63;14.90;;;;;;;7.38;100.00;101772.16;5061243;28;20094;-85
2021/10/07 00:07:08;;;;;;;22.67;14.05;;;;;;;7.38;100.00;101777.50;5032669;28;20065;-87
2021/10/07 00:09:38;;;;;;;22.33;13.75;;;;;;;7.36;100.00;101778.56;5063457;28;20762;-84
2021/10/07 00:12:04;;;;;;;21.70;12.80;;;;;;;7.33;100.00;101793.00;5042814;28;20131;-88
2021/10/07 00:14:29;;;;;;;21.48;13.32;;;;;;;7.21;100.00;101793.97;5053778;28;20117;-85
2021/10/07 00:16:55;;;;;;;21.02;13.05;;;;;;;7.14;100.00;101798.09;5062632;28;20163;-86
2021/10/07 00:19:21;;;;;;;19.95;12.52;;;;;;;7.09;100.00;101790.41;5058958;28;20056;-87
2021/10/07 00:21:46;;;;;;;23.50;14.70;;;;;;;7.13;100.00;101791.88;5042571;28;20445;-88
2021/10/07 00:24:12;;;;;;;28.67;16.50;;;;;;;7.20;100.00;101800.28;5053446;28;20044;-85
2021/10/07 00:26:43;;;;;;;25.08;14.65;;;;;;;7.18;100.00;101794.19;5056981;28;20038;-86
2021/10/07 00:32:00;;;;;;;27.60;15.90;;;;;;;7.21;100.00;101808.16;5062937;28;20068;-91
2021/10/07 00:37:04;;;;;;;25.20;16.73;;;;;;;7.27;100.00;101819.34;5062219;28;20043;-85
2021/10/07 00:39:31;;;;;;;;;;;;;;;7.29;100.00;101812.06;5045428;28;20225;-87
2021/10/07 00:41:56;;;;;;;24.35;15.38;;;;;;;7.21;100.00;101823.31;5063080;28;19916;-84
2021/10/07 00:44:22;;;;;;;26.15;14.82;;;;;;;7.13;100.00;101829.25;5059866;28;20048;-85
2021/10/07 00:46:59;;;;;;;25.05;16.00;;;;;;;7.05;100.00;101829.00;5049612;28;20034;-88
2021/10/07 00:49:28;;;;;;;25.42;15.73;;;;;;;7.01;100.00;101827.50;5038859;28;20300;-87
2021/10/07 00:52:00;;;;;;;23.10;14.82;;;;;;;7.02;100.00;101829.22;5023970;28;20036;-85
2021/10/07 00:54:27;;;;;;;21.63;14.05;;;;;;;6.94;100.00;101828.97;5029837;28;20041;-83
2021/10/07 00:56:54;;;;;;;22.10;14.35;;;;;;;6.91;100.00;101834.53;5028740;28;20059;-86
2021/10/07 00:59:20;;;;;;;22.00;14.25;;;;;;;6.89;100.00;101842.63;5012530;28;20048;-87
2021/10/07 01:01:46;;;;;;;30.88;16.70;;;;;;;6.87;100.00;101844.56;5037516;28;20437;-87
2021/10/07 01:04:12;;;;;;;26.92;16.42;;;;;;;6.89;100.00;101845.28;5063854;28;20056;-84
2021/10/07 01:06:40;;;;;;;27.95;13.88;;;;;;;6.86;100.00;101848.19;5049219;28;20051;-88
2021/10/07 01:09:06;;;;;;;27.40;17.07;;;;;;;6.88;100.00;101856.94;5082378;28;20047;-87
2021/10/07 01:11:32;;;;;;;30.55;14.95;;;;;;;6.87;100.00;101855.22;5064517;28;20115;-84
2021/10/07 01:13:58;;;;;;;22.55;14.48;;;;;;;6.86;100.00;101858.88;5053819;28;21040;-83
2021/10/07 01:16:23;;;;;;;23.63;15.68;;;;;;;6.84;100.00;101858.13;5052372;28;20036;-85
2021/10/07 01:18:49;;;;;;;25.77;14.52;;;;;;;6.81;100.00;101854.84;5067815;28;20386;-84
2021/10/07 01:21:16;;;;;;;19.30;13.15;;;;;;;6.76;100.00;101860.50;5015740;28;20033;-86
2021/10/07 01:23:43;;;;;;;20.75;13.23;;;;;;;6.70;100.00;101859.16;5047376;28;20124;-89
2021/10/07 01:26:11;;;;;;;19.52;14.10;;;;;;;6.61;100.00;101869.66;5067366;28;20819;-86
2021/10/07 01:28:41;;;;;;;18.50;13.38;;;;;;;6.61;100.00;101862.50;5054962;28;20055;-85
2021/10/07 01:31:06;;;;;;;23.23;13.88;;;;;;;6.61;100.00;101858.97;5078008;28;20041;-85
2021/10/07 01:33:33;;;;;;;24.70;14.88;;;;;;;6.60;100.00;101862.63;5047260;28;20040;-85
2021/10/07 01:35:59;;;;;;;23.60;15.52;;;;;;;6.63;100.00;101865.91;5067585;28;20040;-91
2021/10/07 01:38:25;;;;;;;25.77;16.27;;;;;;;6.62;100.00;101860.66;5052155;28;20037;-88
2021/10/07 01:40:50;;;;;;;23.75;15.18;;;;;;;6.62;100.00;101866.00;5050786;28;20502;-87
2021/10/07 01:43:16;;;;;;;23.30;14.23;;;;;;;6.57;100.00;101866.34;5067730;28;20056;-88
2021/10/07 01:45:41;;;;;;;24.63;15.25;;;;;;;6.53;100.00;101867.53;5064777;28;20082;-85
2021/10/07 01:48:07;;;;;;;25.02;15.32;;;;;;;6.50;100.00;101863.28;5042092;28;20040;-90
2021/10/07 01:50:32;;;;;;;22.58;14.50;;;;;;;6.48;100.00;101867.03;5064078;28;20558;-88
2021/10/07 01:52:58;;;;;;;25.20;15.05;;;;;;;6.43;100.00;101880.69;5047505;28;20172;-85
2021/10/07 01:55:23;;;;;;;21.05;14.27;;;;;;;6.35;100.00;101877.72;5043584;28;20406;-86
2021/10/07 01:57:49;;;;;;;19.90;13.77;;;;;;;6.31;100.00;101879.75;5036177;28;20075;-85
2021/10/07 02:00:14;;;;;;;22.17;14.32;;;;;;;6.31;100.00;101881.56;5064566;28;20388;-84
2021/10/07 02:02:41;;;;;;;24.35;14.00;;;;;;;6.27;100.00;101894.28;5064413;28;20064;-83
2021/10/07 02:05:08;;;;;;;25.10;15.52;;;;;;;6.30;100.00;101899.38;5065728;28;20550;-88
2021/10/07 02:07:33;;;;;;;29.90;15.90;;;;;;;6.30;100.00;101904.72;5044887;28;20042;-85
2021/10/07 02:09:59;;;;;;;35.17;17.50;;;;;;;6.33;100.00;101898.31;5035381;28;20095;-86
2021/10/07 02:12:25;;;;;;;28.75;17.45;;;;;;;6.34;100.00;101905.34;5037933;28;20041;-88
2021/10/07 02:14:50;;;;;;;43.53;18.08;;;;;;;6.36;100.00;101910.56;5029219;28;20037;-87
2021/10/07 02:17:16;;;;;;;36.00;16.65;;;;;;;6.40;100.00;101915.56;5024522;28;20037;-86
2021/10/07 02:19:41;;;;;;;34.30;17.15;;;;;;;6.41;100.00;101922.59;5051319;28;20068;-85
2021/10/07 02:22:06;;;;;;;35.92;17.73;;;;;;;6.39;100.00;101918.34;5038835;28;20043;-86
2021/10/07 02:24:33;;;;;;;37.55;18.48;;;;;;;6.40;100.00;101920.91;5024333;28;20045;-86
2021/10/07 02:26:58;;;;;;;62.53;19.88;;;;;;;6.43;100.00;101925.16;5057533;28;20121;-85
2021/10/07 02:29:23;;;;;;;96.25;23.98;;;;;;;6.39;100.00;101918.34;5037226;28;20136;-87
2021/10/07 02:31:49;;;;;;;72.78;22.05;;;;;;;6.36;100.00;101927.44;5031835;28;20073;-87
2021/10/07 02:34:14;;;;;;;85.78;22.88;;;;;;;6.40;100.00;101928.91;5049299;28;20032;-83
2021/10/07 02:36:39;;;;;;;115.30;25.50;;;;;;;6.38;100.00;101928.16;5036513;28;20049;-86
2021/10/07 02:39:05;;;;;;;83.30;21.80;;;;;;;6.32;100.00;101926.78;5049221;28;20044;-87
2021/10/07 02:41:31;;;;;;;115.70;23.40;;;;;;;6.32;100.00;101934.78;5048665;28;20037;-85
2021/10/07 02:43:57;;;;;;;87.80;23.38;;;;;;;6.32;100.00;101932.09;5066210;28;20052;-85
2021/10/07 02:46:23;;;;;;;132.15;29.15;;;;;;;6.33;100.00;101943.66;5039717;28;20056;-86
2021/10/07 02:48:48;;;;;;;83.88;23.98;;;;;;;6.35;100.00;101935.53;5041147;28;20489;-86
2021/10/07 02:51:14;;;;;;;112.05;26.20;;;;;;;6.32;100.00;101940.09;5049128;28;20037;-85
2021/10/07 02:53:39;;;;;;;89.00;24.80;;;;;;;6.28;100.00;101932.44;5064368;28;20033;-84
2021/10/07 02:56:06;;;;;;;98.60;24.20;;;;;;;6.25;100.00;101938.00;5064622;28;20460;-89
2021/10/07 02:58:33;;;;;;;88.18;25.77;;;;;;;6.31;100.00;101943.75;5048069;28;20400;-85
2021/10/07 03:00:58;;;;;;;115.00;27.40;;;;;;;6.30;100.00;101941.16;5057031;28;20033;-87
2021/10/07 03:03:23;;;;;;;77.47;23.60;;;;;;;6.22;100.00;101951.53;5066157;28;20664;-87
2021/10/07 03:05:49;;;;;;;51.72;22.13;;;;;;;6.25;100.00;101956.66;5046264;28;20028;-88
2021/10/07 03:08:14;;;;;;;85.53;26.65;;;;;;;6.28;100.00;101945.78;5049585;28;20113;-86
2021/10/07 03:10:40;;;;;;;60.63;25.73;;;;;;;6.38;100.00;101962.81;5067084;28;20049;-87
2021/10/07 03:13:05;;;;;;;156.73;33.22;;;;;;;6.38;100.00;101961.97;5068261;28;20062;-90
2021/10/07 03:15:31;;;;;;;73.60;25.75;;;;;;;6.39;100.00;101959.22;5069734;28;20543;-85
2021/10/07 03:17:56;;;;;;;68.15;27.70;;;;;;;6.44;100.00;101964.19;5084172;28;20032;-86
2021/10/07 03:20:21;;;;;;;119.30;30.33;;;;;;;6.41;100.00;101953.75;5068271;28;20200;-87
2021/10/07 03:22:47;;;;;;;73.93;27.48;;;;;;;6.39;100.00;101963.66;5066870;28;20396;-84
2021/10/07 03:25:12;;;;;;;108.93;32.58;;;;;;;6.43;100.00;101968.69;5066860;28;20039;-82
2021/10/07 03:27:38;;;;;;;109.95;30.48;;;;;;;6.45;100.00;101966.75;5064774;28;20041;-88
2021/10/07 03:30:08;;;;;;;171.70;36.20;;;;;;;6.45;100.00;101972.09;5057138;28;20076;-85
2021/10/07 03:32:33;;;;;;;94.93;29.80;;;;;;;6.46;100.00;101968.47;5058510;28;20053;-86
2021/10/07 03:34:59;;;;;;;136.32;34.25;;;;;;;6.45;100.00;101965.91;5052106;28;20119;-83
2021/10/07 03:37:24;;;;;;;121.80;30.58;;;;;;;6.37;100.00;101970.94;5049827;28;20044;-84
2021/10/07 03:39:50;;;;;;;118.75;31.70;;;;;;;6.37;100.00;101978.94;5054941;28;20040;-88
2021/10/07 03:42:16;;;;;;;149.32;35.50;;;;;;;6.39;100.00;101977.00;5055514;28;20485;-83
2021/10/07 03:44:41;;;;;;;100.72;33.17;;;;;;;6.46;100.00;101987.13;5057544;28;20037;-85
2021/10/07 03:47:08;;;;;;;99.40;33.33;;;;;;;6.59;100.00;101988.91;5056945;28;20033;-83
2021/10/07 03:49:33;;;;;;;112.68;30.30;;;;;;;6.56;100.00;101979.34;5063265;28;20699;-83
2021/10/07 03:51:59;;;;;;;112.40;32.45;;;;;;;6.58;100.00;101987.22;5057676;28;20123;-87
2021/10/07 03:54:24;;;;;;;99.85;30.92;;;;;;;6.55;100.00;101989.13;5050865;28;20102;-82
2021/10/07 03:56:50;;;;;;;80.15;28.77;;;;;;;6.59;100.00;101986.25;5057553;28;20041;-85
2021/10/07 03:59:15;;;;;;;90.40;30.50;;;;;;;6.58;100.00;101988.06;5046772;28;20048;-90
2021/10/07 04:01:41;;;;;;;115.18;34.00;;;;;;;6.63;100.00;101993.09;5054827;28;20064;-86
2021/10/07 04:04:06;;;;;;;75.32;31.67;;;;;;;6.75;100.00;101990.38;5059016;28;20040;-85
2021/10/07 04:06:32;;;;;;;77.07;33.60;;;;;;;6.84;100.00;101999.53;5071167;28;20068;-86
2021/10/07 04:08:57;;;;;;;110.45;32.53;;;;;;;6.85;100.00;102006.59;5055978;28;20110;-90
2021/10/07 04:11:22;;;;;;;72.60;30.85;;;;;;;6.89;100.00;102007.22;5058308;28;20086;-88
2021/10/07 04:13:48;;;;;;;116.80;35.78;;;;;;;6.95;100.00;102012.97;5047515;28;20037;-84
2021/10/07 04:16:14;;;;;;;118.45;35.70;;;;;;;6.98;100.00;102022.56;5070186;28;20114;-89
2021/10/07 04:18:40;;;;;;;133.32;37.95;;;;;;;6.98;100.00;102020.75;5036517;28;20059;-87
2021/10/07 04:21:07;;;;;;;134.40;38.00;;;;;;;7.04;100.00;102029.28;5068447;28;20098;-84
2021/10/07 04:23:32;;;;;;;161.02;40.08;;;;;;;7.01;100.00;102031.19;5059536;28;20489;-84
2021/10/07 04:25:58;;;;;;;209.73;44.53;;;;;;;7.00;100.00;102028.66;5040459;28;20055;-89
2021/10/07 04:28:23;;;;;;;140.23;37.08;;;;;;;7.04;100.00;102032.78;5056299;28;20392;-87
2021/10/07 04:30:49;;;;;;;140.65;38.47;;;;;;;7.09;100.00;102027.13;5068862;28;20472;-85
2021/10/07 04:33:14;;;;;;;179.68;41.28;;;;;;;7.09;100.00;102036.00;5059030;28;20043;-87
2021/10/07 04:35:40;;;;;;;151.57;35.33;;;;;;;7.01;100.00;102038.34;5057105;28;20547;-88
2021/10/07 04:38:06;;;;;;;142.70;37.42;;;;;;;6.97;100.00;102042.22;5063897;28;20087;-84
2021/10/07 04:40:32;;;;;;;212.32;40.92;;;;;;;7.01;100.00;102051.69;5066419;28;20119;-88
2021/10/07 04:42:58;;;;;;;124.78;34.38;;;;;;;6.95;100.00;102055.66;5061280;28;20037;-85
2021/10/07 04:45:23;;;;;;;211.50;45.80;;;;;;;7.08;100.00;102054.78;5070557;28;20039;-84
2021/10/07 04:47:49;;;;;;;201.32;43.70;;;;;;;7.10;100.00;102060.84;5073008;28;20036;-85
2021/10/07 04:50:14;;;;;;;198.18;42.40;;;;;;;7.11;100.00;102065.25;5063727;28;20104;-87
2021/10/07 04:52:40;;;;;;;253.90;47.90;;;;;;;7.09;100.00;102061.84;5046215;28;20076;-84
2021/10/07 04:55:06;;;;;;;305.08;52.80;;;;;;;7.12;100.00;102058.94;5030648;28;20397;-87
2021/10/07 04:57:33;;;;;;;208.88;45.10;;;;;;;7.13;100.00;102057.97;5058930;28;20063;-81
2021/10/07 04:59:58;;;;;;;234.57;43.63;;;;;;;7.11;100.00;102050.09;5068872;28;20578;-86
2021/10/07 05:02:23;;;;;;;209.43;44.95;;;;;;;7.15;100.00;102056.91;5068569;28;20139;-87
2021/10/07 05:04:49;;;;;;;190.60;44.85;;;;;;;7.15;100.00;102056.06;5067194;28;20043;-90
2021/10/07 05:07:20;;;;;;;229.05;46.03;;;;;;;7.14;100.00;102057.03;5067339;28;20041;-87
2021/10/07 05:09:45;;;;;;;202.57;42.90;;;;;;;7.08;100.00;102061.00;5067525;28;20047;-85
2021/10/07 05:12:11;;;;;;;202.18;44.70;;;;;;;7.05;100.00;102068.34;5047825;28;20061;-90
2021/10/07 05:14:36;;;;;;;129.10;34.85;;;;;;;7.00;100.00;102066.03;5043870;28;20040;-84
2021/10/07 05:17:03;;;;;;;125.28;38.75;;;;;;;7.05;100.00;102068.34;5066731;28;20044;-88
2021/10/07 05:19:28;;;;;;;133.40;38.22;;;;;;;7.10;100.00;102068.88;5068032;28;20124;-83
2021/10/07 05:21:54;;;;;;;125.30;39.92;;;;;;;7.13;100.00;102071.31;5066839;28;20119;-87
2021/10/07 05:24:20;;;;;;;185.15;42.90;;;;;;;7.09;100.00;102072.50;5067899;28;20033;-87
2021/10/07 05:26:45;;;;;;;169.25;41.22;;;;;;;7.12;100.00;102073.13;5050531;28;20032;-86
2021/10/07 05:29:11;;;;;;;311.42;48.70;;;;;;;7.11;100.00;102075.94;5067408;28;20044;-85
2021/10/07 05:31:36;;;;;;;289.67;49.22;;;;;;;7.11;100.00;102083.94;5065764;28;20094;-86
2021/10/07 05:34:01;;;;;;;177.70;40.28;;;;;;;7.10;100.00;102079.53;5067909;28;20485;-85
2021/10/07 05:36:27;;;;;;;226.40;45.95;;;;;;;7.08;100.00;102098.34;5068905;28;20079;-85
2021/10/07 05:38:52;;;;;;;199.40;44.08;;;;;;;7.13;100.00;102100.69;5067065;28;20067;-88
2021/10/07 05:41:18;;;;;;;159.52;41.38;;;;;;;7.10;100.00;102098.22;5063991;28;20447;-87
2021/10/07 05:43:44;;;;;;;258.08;44.78;;;;;;;7.08;100.00;102105.50;5025037;28;20040;-82
2021/10/07 05:46:09;;;;;;;206.52;42.80;;;;;;;7.06;100.00;102104.75;5056382;28;20102;-86
2021/10/07 05:48:36;;;;;;;231.23;46.92;;;;;;;7.06;100.00;102104.75;5067380;28;20068;-82
2021/10/07 05:51:02;;;;;;;227.45;47.70;;;;;;;7.05;100.00;102114.59;5065792;28;20047;-89
2021/10/07 05:53:27;;;;;;;152.98;42.47;;;;;;;7.04;100.00;102117.34;5057364;28;20036;-82
2021/10/07 05:55:52;;;;;;;282.13;50.00;;;;;;;7.01;100.00;102123.75;5045807;28;20087;-84
2021/10/07 05:58:18;;;;;;;215.70;42.38;;;;;;;7.06;100.00;102115.44;5067894;28;20041;-86
2021/10/07 06:00:43;;;;;;;197.40;44.17;;;;;;;7.07;100.00;102119.81;5044818;28;20235;-83
2021/10/07 06:03:09;;;;;;;277.67;47.90;;;;;;;7.09;100.00;102120.56;5047999;28;20042;-86
2021/10/07 06:05:36;;;;;;;222.80;46.42;;;;;;;7.12;100.00;102123.00;5049343;28;20043;-86
2021/10/07 06:08:01;;;;;;;255.95;46.75;;;;;;;7.16;100.00;102129.81;5065751;28;20039;-87
2021/10/07 06:10:27;;;;;;;282.55;50.67;;;;;;;7.19;100.00;102145.63;5058085;28;20053;-88
2021/10/07 06:12:52;;;;;;;234.98;45.35;;;;;;;7.19;100.00;102142.94;5061626;28;20029;-86
2021/10/07 06:15:18;;;;;;;256.17;49.80;;;;;;;7.21;100.00;102149.03;5067664;28;20394;-84
2021/10/07 06:17:43;;;;;;;238.48;51.03;;;;;;;7.29;100.00;102152.03;5068235;28;20056;-87
2021/10/07 06:23:03;;;;;;;245.25;45.00;;;;;;;7.26;100.00;102154.06;5039761;28;20038;-87
2021/10/07 06:25:29;;;;;;;267.52;47.20;;;;;;;7.29;100.00;102159.19;5047411;28;20037;-86
2021/10/07 06:27:55;;;;;;;142.32;40.38;;;;;;;7.32;100.00;102166.97;5045447;28;20455;-85
2021/10/07 06:30:21;;;;;;;236.40;45.92;;;;;;;7.33;100.00;102166.84;5042678;28;20072;-85
2021/10/07 06:32:49;;;;;;;185.55;44.10;;;;;;;7.35;100.00;102174.78;5045132;28;20556;-87
2021/10/07 06:35:15;;;;;;;280.75;47.03;;;;;;;7.36;100.00;102177.31;5047086;28;20056;-86
2021/10/07 06:37:40;;;;;;;204.55;40.80;;;;;;;7.31;100.00;102187.50;5056327;28;20044;-84
2021/10/07 06:40:07;;;;;;;192.50;44.28;;;;;;;7.35;100.00;102186.31;5064710;28;20090;-88
2021/10/07 06:42:33;;;;;;;226.90;45.80;;;;;;;7.38;100.00;102191.41;5051429;28;20040;-87
2021/10/07 06:45:01;;;;;;;132.90;39.38;;;;;;;7.41;100.00;102185.84;5068460;28;20037;-87
2021/10/07 06:47:26;;;;;;;187.15;45.72;;;;;;;7.42;100.00;102198.28;5048595;28;20398;-84
2021/10/07 06:49:52;;;;;;;180.27;42.20;;;;;;;7.39;100.00;102193.16;5035407;28;20060;-86
2021/10/07 06:52:20;;;;;;;164.70;37.13;;;;;;;7.34;100.00;102203.28;5043020;28;20052;-85
2021/10/07 06:54:45;;;;;;;225.27;46.08;;;;;;;7.40;100.00;102204.69;5044278;28;20250;-87
2021/10/07 06:57:10;;;;;;;215.52;48.08;;;;;;;7.45;100.00;102208.72;5077966;28;20121;-90
2021/10/07 06:59:37;;;;;;;313.75;51.70;;;;;;;7.44;100.00;102211.50;5055607;28;20052;-85
2021/10/07 07:02:03;;;;;;;191.48;44.25;;;;;;;7.49;100.00;102213.84;5058904;28;20047;-85
2021/10/07 07:04:28;;;;;;;236.52;50.92;;;;;;;7.54;100.00;102217.03;5062509;28;20036;-86
2021/10/07 07:06:54;;;;;;;245.43;52.40;;;;;;;7.58;100.00;102213.19;5047268;28;20408;-87
2021/10/07 07:09:20;;;;;;;234.57;50.30;;;;;;;7.61;100.00;102213.81;5060917;28;20064;-86
2021/10/07 07:11:47;;;;;;;168.10;46.95;;;;;;;7.64;100.00;102212.75;5043795;28;20029;-86
2021/10/07 07:14:12;;;;;;;171.25;49.42;;;;;;;7.73;100.00;102221.91;5055938;28;20356;-84
2021/10/07 07:16:38;;;;;;;307.88;59.63;;;;;;;7.81;100.00;102224.88;5041674;28;20509;-85
2021/10/07 07:19:03;;;;;;;249.88;54.08;;;;;;;7.82;100.00;102223.91;5056292;28;20353;-87
2021/10/07 07:21:32;;;;;;;236.07;49.53;;;;;;;7.89;100.00;102222.53;5041869;28;20183;-86
2021/10/07 07:23:58;;;;;;;255.35;52.17;;;;;;;7.91;100.00;102232.13;5040782;28;20095;-88
2021/10/07 07:26:26;;;;;;;245.23;50.88;;;;;;;7.89;100.00;102238.56;5060339;28;20110;-85
2021/10/07 07:28:53;;;;;;;244.10;46.05;;;;;;;7.93;100.00;102244.53;5059095;28;20045;-85
2021/10/07 07:31:19;;;;;;;171.77;49.20;;;;;;;8.02;100.00;102239.34;5042890;28;20127;-87
2021/10/07 07:33:48;;;;;;;230.93;48.22;;;;;;;8.03;100.00;102235.72;5047342;28;20106;-86
2021/10/07 07:36:23;;;;;;;239.68;48.88;;;;;;;8.01;100.00;102242.16;5040944;28;20053;-87
2021/10/07 07:38:48;;;;;;;238.07;52.30;;;;;;;8.10;100.00;102246.81;5040051;28;20041;-88
2021/10/07 07:41:15;;;;;;;204.07;51.28;;;;;;;8.18;100.00;102248.94;5045059;28;20106;-85
2021/10/07 07:43:41;;;;;;;232.68;49.90;;;;;;;8.22;100.00;102253.94;5034089;28;20033;-84
2021/10/07 07:46:07;;;;;;;206.60;46.20;;;;;;;8.24;100.00;102243.97;5057514;28;20048;-86
2021/10/07 07:48:33;;;;;;;298.80;52.88;;;;;;;8.19;100.00;102247.97;5059404;28;20369;-88
2021/10/07 07:50:59;;;;;;;231.18;46.97;;;;;;;8.16;100.00;102254.38;5061664;28;20400;-86
2021/10/07 07:53:26;;;;;;;227.10;51.65;;;;;;;8.24;100.00;102259.19;5062676;28;20113;-87
2021/10/07 07:55:51;;;;;;;243.13;52.97;;;;;;;8.36;100.00;102255.59;5052084;28;20049;-88
2021/10/07 07:58:18;;;;;;;210.82;51.72;;;;;;;8.43;100.00;102253.31;5059142;28;20496;-89
2021/10/07 08:00:44;;;;;;;188.07;50.63;;;;;;;8.56;100.00;102259.47;5039672;28;20517;-88
2021/10/07 08:03:12;;;;;;;190.18;47.50;;;;;;;8.63;100.00;102266.09;5035418;28;20029;-87
2021/10/07 08:05:37;;;;;;;218.95;52.10;;;;;;;8.71;100.00;102274.38;5056863;28;20296;-84
2021/10/07 08:08:03;;;;;;;177.88;49.55;;;;;;;8.77;100.00;102265.88;5061572;28;20569;-84
2021/10/07 08:10:29;;;;;;;185.90;48.67;;;;;;;8.76;100.00;102272.19;5061713;28;20123;-84
2021/10/07 08:12:55;;;;;;;195.30;46.50;;;;;;;8.79;100.00;102276.47;5057119;28;20037;-85
2021/10/07 08:15:21;;;;;;;277.35;53.67;;;;;;;8.81;100.00;102275.38;5063949;28;20131;-83
2021/10/07 08:17:47;;;;;;;187.55;44.83;;;;;;;8.82;100.00;102269.06;5053919;28;20060;-86
2021/10/07 08:20:15;;;;;;;237.43;55.33;;;;;;;8.91;100.00;102272.00;5063237;28;20044;-86
2021/10/07 08:22:41;;;;;;;220.57;52.10;;;;;;;8.95;100.00;102268.16;5049629;28;20047;-83
2021/10/07 08:25:08;;;;;;;216.82;49.78;;;;;;;9.04;100.00;102270.09;5049089;28;20557;-88
2021/10/07 08:27:34;;;;;;;211.32;49.13;;;;;;;9.12;100.00;102262.34;5066902;28;20392;-90
2021/10/07 08:29:59;;;;;;;197.73;48.63;;;;;;;9.15;100.00;102267.44;5056426;28;20049;-86
2021/10/07 08:32:24;;;;;;;185.07;53.15;;;;;;;9.19;100.00;102263.56;5072055;28;20041;-87
2021/10/07 08:34:51;;;;;;;192.90;49.60;;;;;;;9.19;100.00;102263.56;5052073;28;20056;-86
2021/10/07 08:37:17;;;;;;;191.70;49.78;;;;;;;9.23;100.00;102265.00;5053034;28;20037;-86
2021/10/07 08:39:43;;;;;;;170.38;46.97;;;;;;;9.26;100.00;102272.84;5061109;28;20091;-90
2021/10/07 08:42:09;;;;;;;163.35;46.42;;;;;;;9.33;100.00;102285.75;5058002;28;20045;-84
2021/10/07 08:44:35;;;;;;;161.30;44.58;;;;;;;9.32;100.00;102278.66;5057968;28;20072;-84
2021/10/07 08:47:01;;;;;;;187.32;46.08;;;;;;;9.40;100.00;102286.94;5050554;28;20064;-87
2021/10/07 08:49:31;;;;;;;152.05;45.45;;;;;;;9.42;100.00;102293.91;5060763;28;20082;-89
2021/10/07 08:51:57;;;;;;;181.52;48.00;;;;;;;9.46;100.00;102287.31;5051049;28;20088;-92
2021/10/07 08:54:24;;;;;;;159.90;44.63;;;;;;;9.43;100.00;102303.63;5034959;28;20490;-86
2021/10/07 08:56:50;;;;;;;150.25;44.90;;;;;;;9.45;100.00;102298.16;5046187;28;20135;-86
2021/10/07 08:59:16;;;;;;;163.70;48.75;;;;;;;9.53;100.00;102294.91;5038240;28;20131;-86
2021/10/07 09:01:44;;;;;;;176.88;48.72;;;;;;;9.59;100.00;102297.09;5033307;28;20130;-85
2021/10/07 09:04:30;;;;;;;180.23;49.20;;;;;;;9.63;100.00;102299.38;5038620;28;20120;-85
2021/10/07 09:07:02;;;;;;;167.77;46.90;;;;;;;9.62;100.00;102307.56;5034448;28;20048;-88
2021/10/07 09:09:30;;;;;;;171.48;48.83;;;;;;;9.65;100.00;102301.97;5056955;28;20045;-85
2021/10/07 09:12:04;;;;;;;168.30;47.55;;;;;;;9.66;100.00;102304.50;5049636;28;20508;-85
2021/10/07 09:14:32;;;;;;;168.85;46.50;;;;;;;9.66;100.00;102304.50;5055596;28;20051;-88
2021/10/07 09:17:00;;;;;;;176.00;46.28;;;;;;;9.73;100.00;102304.03;5034178;28;20133;-86
2021/10/07 09:19:31;;;;;;;158.52;42.83;;;;;;;9.78;100.00;102307.19;5034929;28;20573;-85
2021/10/07 09:22:18;;;;;;;150.00;43.78;;;;;;;9.76;100.00;102298.44;5040722;28;20155;-87
2021/10/07 09:24:54;;;;;;;156.73;41.53;;;;;;;9.77;100.00;102300.13;5033306;28;20130;-87
2021/10/07 09:27:25;;;;;;;155.98;43.13;;;;;;;9.80;100.00;102299.88;5026983;28;20045;-86
2021/10/07 09:29:53;;;;;;;162.07;43.15;;;;;;;9.87;100.00;102304.66;5048912;28;20038;-89
2021/10/07 09:32:31;;;;;;;147.52;43.90;;;;;;;9.91;100.00;102305.25;5056372;28;20336;-84
2021/10/07 09:35:00;;;;;;;156.13;41.83;;;;;;;9.93;100.00;102306.00;5070085;28;20051;-87
2021/10/07 09:37:37;;;;;;;138.82;41.22;;;;;;;9.93;100.00;102309.50;5055309;28;20492;-91
2021/10/07 09:40:09;;;;;;;141.65;42.10;;;;;;;10.01;100.00;102308.03;5061726;28;20044;-88
2021/10/07 09:42:47;;;;;;;139.18;39.55;;;;;;;10.02;100.00;102310.59;5054132;28;20571;-85
2021/10/07 09:45:23;;;;;;;154.82;37.78;;;;;;;10.06;100.00;102314.72;5046481;28;20045;-87
2021/10/07 09:47:56;;;;;;;166.48;45.40;;;;;;;10.10;100.00;102313.53;5049164;28;20057;-85
2021/10/07 09:50:29;;;;;;;135.48;39.20;;;;;;;10.11;100.00;102315.22;5021373;28;20045;-88
2021/10/07 09:53:03;;;;;;;155.02;41.55;;;;;;;10.19;100.00;102311.06;5041886;28;20124;-86
2021/10/07 09:55:43;;;;;;;150.07;44.63;;;;;;;10.20;100.00;102308.25;5037910;28;20049;-90
2021/10/07 09:58:17;;;;;;;135.15;41.65;;;;;;;10.26;100.00;102314.94;5036278;28;20060;-84
2021/10/07 10:00:52;;;;;;;135.40;39.55;;;;;;;10.23;100.00;102316.06;5023390;28;20036;-87
2021/10/07 10:03:19;;;;;;;139.73;42.47;;;;;;;10.26;100.00;102315.78;5047785;28;20501;-89
2021/10/07 10:05:48;;;;;;;138.48;39.65;;;;;;;10.25;100.00;102307.88;5034551;28;20080;-84
2021/10/07 10:08:15;;;;;;;123.32;40.85;;;;;;;10.25;100.00;102322.16;5037576;28;20090;-86
2021/10/07 10:10:43;;;;;;;116.05;38.38;;;;;;;10.23;100.00;102326.78;5038394;28;20570;-86
2021/10/07 10:13:11;;;;;;;119.57;40.27;;;;;;;10.30;100.00;102329.84;5045558;28;20045;-87
2021/10/07 10:15:37;;;;;;;122.60;40.95;;;;;;;10.28;100.00;102327.28;5040896;28;20052;-87
2021/10/07 10:18:15;;;;;;;107.10;37.67;;;;;;;10.25;100.00;102324.00;5030860;28;20120;-84
2021/10/07 10:20:51;;;;;;;106.78;38.55;;;;;;;10.28;100.00;102329.97;5043948;28;20065;-84
2021/10/07 10:23:21;;;;;;;108.43;38.55;;;;;;;10.32;100.00;102338.63;5042084;28;20037;-86
2021/10/07 10:26:19;;;;;;;102.22;35.80;;;;;;;10.27;100.00;102330.09;5038515;28;20048;-88
2021/10/07 10:28:51;;;;;;;114.93;39.08;;;;;;;10.32;100.00;102338.63;5028008;28;20053;-89
2021/10/07 10:31:26;;;;;;;98.47;36.22;;;;;;;10.34;100.00;102342.03;5065209;28;20045;-86
2021/10/07 10:34:03;;;;;;;101.38;37.80;;;;;;;10.39;100.00;102340.69;5039936;28;20040;-89
2021/10/07 10:36:32;;;;;;;91.75;33.88;;;;;;;10.35;100.00;102344.59;5050998;28;20049;-84
2021/10/07 10:39:19;;;;;;;89.53;32.53;;;;;;;10.34;100.00;102344.72;5033462;28;20052;-85
2021/10/07 10:42:26;;;;;;;92.65;34.00;;;;;;;10.40;100.00;102346.91;5052969;28;20064;-86
2021/10/07 10:44:56;;;;;;;77.78;33.10;;;;;;;10.40;100.00;102346.91;5003829;28;20056;-88
2021/10/07 10:47:32;;;;;;;78.15;34.63;;;;;;;10.44;100.00;102359.09;5055123;28;20119;-85
2021/10/07 10:50:10;;;;;;;78.68;33.13;;;;;;;10.48;100.00;102357.03;5056349;28;20080;-89
2021/10/07 10:52:41;;;;;;;74.20;31.35;;;;;;;10.51;100.00;102352.25;5059813;28;20503;-87
2021/10/07 10:55:11;;;;;;;76.07;33.17;;;;;;;10.55;100.00;102358.22;5057546;28;20517;-89
2021/10/07 10:57:39;;;;;;;70.00;29.98;;;;;;;10.52;100.00;102361.16;5058848;28;20045;-86
2021/10/07 11:00:13;;;;;;;62.65;28.98;;;;;;;10.59;100.00;102371.28;5059585;28;20388;-87
2021/10/07 11:02:47;;;;;;;60.15;28.23;;;;;;;10.56;100.00;102371.53;5067414;28;20063;-84
2021/10/07 11:05:30;;;;;;;61.00;26.90;;;;;;;10.66;100.00;102371.59;5079382;28;20070;-89
2021/10/07 11:08:23;;;;;;;61.47;29.50;;;;;;;10.71;100.00;102376.63;5048204;28;20117;-91
2021/10/07 11:10:56;;;;;;;61.13;30.20;;;;;;;10.75;100.00;102373.53;5064223;28;20083;-86
2021/10/07 11:13:23;;;;;;;56.72;28.83;;;;;;;10.79;100.00;102375.00;5065098;28;20428;-86
2021/10/07 11:15:56;;;;;;;59.75;28.98;;;;;;;10.82;100.00;102373.91;5066080;28;20060;-92